Aeroporto :
LOGIN :

Iscrizione | Disclaimer

   EN    FR    IT 

 










Sommario :    VFR   VFR Marginale   IFR   IFR Intensivo   IFR Molto Intensivo
Visibilità : 
Base nubi : 
>= 8 km
>= 3000ft
5 / 8 km
1000 / 3000 ft
1500m / 5 km
500 / 1000 ft
800 / 1500m
200 / 500 ft
< 800m
< 200 ft
Simboli :   Temporali  Nebbia  Neve Forte  Precipitazioni Forti  Vento > 20 kt
SIGMETs :   Varie  Temporali  Ghiacco  Turbolenza  Onda orograficha  Ceneri Vulcaniche







- Altitudine del aeroporto : 83 ft
- Codice IATA : LHR
- Carte del aeroporto


EGLL - London Heathrow

ULTIMO METAR :
  • 250150Z AUTO 29006KT 250V320 9999 SCT029 BKN046 08/03 Q1029 NOSIG

METARs OBSOLETI :
  • 250120Z AUTO 28008KT 9999 BKN030 BKN038 07/03 Q1029 NOSIG
  • 250050Z AUTO 28009KT 9999 BKN039 BKN046 07/02 Q1028 NOSIG
  • 250020Z AUTO 27007KT 9999 BKN046 07/02 Q1029 NOSIG
  • 242350Z AUTO 27007KT 9999 NCD 06/02 Q1029
  • 242320Z AUTO 28007KT 9999 NCD 06/02 Q1029 NOSIG

TAF TAF EGLL
Valido dal 25 a 00 ore il 26 a 06 ore UTC


242254Z 2500/2606 28008KT 9999 FEW045
BECMG 2506/2509 35012KT
BECMG 2521/2524 VRB03KT
PROB40
TEMPO 2601/2606 8000
Nessun NOTAM noto per questo aeroporto.
1 SIGMET conosciuto per la FIR London (EGTT) :
 
Turbolenza severa
EGTT SIGMET 01 VALID 250200/250600 EGRR
EGTT LONDON FIR SEV TURB FCST WI N5500 E00500 - N5315 E00330 - N5500 W00040 - N5500 E00500 SFC/FL060 STNR NC=



MetMap, La meteo Aeronautica in un colpo d'occhio ! - Copyright ORBIFLY Dicembre 2007 - Disclaimer

ORBIFLY MET'MAP TEAM :

Programmazione e sviluppo : Alexandra Zaïnal
Concezione e sviluppo : Baudouin d'Aumeries
Co-Programmazione e sviluppo : Marc-Olivier Méhu
Supporto tecnico e logistico : Manuel Goepfert
Aiuto per la traduzione : Arnaldo La Scala

Contatto : metmap@orbifly.com




FONTI E CREDITI :

   NOAA